createdAt,value
2022-10-29T00:00:55.826Z,55.82
2022-10-29T00:03:23.367Z,55.84
2022-10-29T00:06:06.089Z,55.96
2022-10-29T00:08:36.042Z,56.45
2022-10-29T00:11:16.068Z,56.20
2022-10-29T00:13:43.597Z,55.64
2022-10-29T00:16:13.170Z,56.18
2022-10-29T00:18:39.765Z,56.03
2022-10-29T00:21:08.699Z,56.27
2022-10-29T00:23:35.329Z,55.40
2022-10-29T00:26:02.647Z,55.52
2022-10-29T00:28:29.874Z,55.32
2022-10-29T00:30:56.460Z,55.68
2022-10-29T00:33:23.341Z,55.78
2022-10-29T00:36:10.336Z,55.87
2022-10-29T00:38:36.922Z,56.57
2022-10-29T00:41:04.921Z,56.42
2022-10-29T00:43:36.370Z,56.69
2022-10-29T00:46:11.912Z,57.23
2022-10-29T00:48:51.086Z,56.96
2022-10-29T00:51:18.964Z,56.77
2022-10-29T00:53:50.801Z,56.98
2022-10-29T00:56:17.897Z,57.10
2022-10-29T00:58:45.377Z,57.21
2022-10-29T01:01:11.996Z,57.51
2022-10-29T01:03:39.511Z,57.01
2022-10-29T01:06:07.294Z,57.17
2022-10-29T01:08:33.874Z,57.77
2022-10-29T01:11:18.811Z,57.76
2022-10-29T01:14:24.326Z,57.55
2022-10-29T01:17:02.234Z,57.88
2022-10-29T01:20:00.747Z,57.94
2022-10-29T01:22:55.385Z,58.02
2022-10-29T01:25:39.268Z,58.10
2022-10-29T01:28:32.310Z,58.29
2022-10-29T01:31:20.783Z,58.54
2022-10-29T01:33:58.620Z,58.08
2022-10-29T01:36:40.996Z,57.71
2022-10-29T01:39:29.184Z,57.72
2022-10-29T01:42:17.019Z,57.90
2022-10-29T01:44:48.054Z,58.08
2022-10-29T01:47:18.969Z,57.74
2022-10-29T01:49:50.496Z,57.44
2022-10-29T01:52:20.138Z,57.12
2022-10-29T01:54:47.870Z,57.59
2022-10-29T01:57:44.013Z,58.07
2022-10-29T02:00:14.722Z,57.76
2022-10-29T02:03:09.886Z,58.04
2022-10-29T02:05:54.562Z,57.78
2022-10-29T02:08:51.559Z,57.50
2022-10-29T02:11:38.693Z,57.41
2022-10-29T02:14:05.295Z,57.67
2022-10-29T02:16:33.674Z,57.86
2022-10-29T02:19:00.489Z,57.91
2022-10-29T02:21:27.096Z,57.10
2022-10-29T02:23:53.797Z,56.57
2022-10-29T02:26:21.718Z,57.33
2022-10-29T02:28:48.359Z,57.38
2022-10-29T02:31:15.006Z,57.76
2022-10-29T02:33:41.605Z,57.85
2022-10-29T02:36:08.545Z,57.54
2022-10-29T02:38:35.120Z,57.26
2022-10-29T02:41:01.745Z,57.89
2022-10-29T02:43:28.327Z,57.81
2022-10-29T02:46:15.596Z,57.39
2022-10-29T02:48:42.565Z,57.57
2022-10-29T02:51:09.200Z,57.83
2022-10-29T02:53:36.133Z,57.53
2022-10-29T02:56:03.395Z,57.39
2022-10-29T02:58:30.119Z,57.50
2022-10-29T03:00:56.703Z,57.03
2022-10-29T03:03:23.610Z,57.21
2022-10-29T03:05:50.739Z,56.93
2022-10-29T03:08:17.970Z,57.07
2022-10-29T03:10:44.799Z,56.89
2022-10-29T03:13:11.873Z,57.40
2022-10-29T03:15:38.880Z,57.33
2022-10-29T03:18:05.535Z,56.98
2022-10-29T03:20:32.103Z,57.69
2022-10-29T03:22:58.650Z,58.27
2022-10-29T03:25:25.216Z,58.21
2022-10-29T03:27:52.299Z,58.74
2022-10-29T03:30:18.949Z,58.24
2022-10-29T03:32:47.887Z,58.10
2022-10-29T03:35:16.289Z,57.84
2022-10-29T03:37:42.871Z,58.25
2022-10-29T03:40:10.049Z,58.41
2022-10-29T03:42:38.491Z,58.29
2022-10-29T03:45:05.324Z,58.79
2022-10-29T03:47:32.836Z,58.36
2022-10-29T03:49:59.401Z,58.44
2022-10-29T03:52:26.053Z,58.22
2022-10-29T03:54:52.756Z,58.08
2022-10-29T03:57:19.526Z,57.84
2022-10-29T03:59:48.506Z,57.37
2022-10-29T04:02:18.352Z,57.80
2022-10-29T04:04:45.003Z,57.21
2022-10-29T04:07:12.180Z,56.85
2022-10-29T04:09:38.774Z,56.61
2022-10-29T04:12:05.694Z,56.91
2022-10-29T04:14:32.376Z,57.52
2022-10-29T04:16:59.105Z,57.60
2022-10-29T04:19:25.831Z,57.85
2022-10-29T04:24:24.704Z,57.42
2022-10-29T04:32:45.103Z,56.93
2022-10-29T04:35:11.752Z,57.14
2022-10-29T04:37:38.362Z,57.45
2022-10-29T04:40:05.474Z,57.24
2022-10-29T04:42:39.335Z,57.26
2022-10-29T04:45:07.210Z,57.37
2022-10-29T04:47:33.977Z,57.54
2022-10-29T04:50:00.582Z,57.99
2022-10-29T04:52:27.238Z,58.71
2022-10-29T04:54:53.808Z,59.12
2022-10-29T04:57:20.391Z,59.07
2022-10-29T04:59:47.071Z,58.69
2022-10-29T05:02:13.710Z,58.66
2022-10-29T05:04:40.248Z,58.86
2022-10-29T05:07:06.838Z,59.08
2022-10-29T05:09:33.414Z,58.66
2022-10-29T05:12:00.005Z,58.25
2022-10-29T05:14:26.566Z,58.05
2022-10-29T05:16:53.142Z,57.90
2022-10-29T05:19:19.691Z,58.09
2022-10-29T05:21:46.253Z,57.82
2022-10-29T05:24:12.806Z,57.53
2022-10-29T05:26:39.386Z,57.34
2022-10-29T05:29:05.968Z,57.56
2022-10-29T05:31:32.510Z,57.61
2022-10-29T05:33:59.124Z,58.02
2022-10-29T05:36:25.742Z,58.37
2022-10-29T05:38:52.362Z,58.00
2022-10-29T05:41:18.931Z,58.00
2022-10-29T05:43:48.582Z,57.89
2022-10-29T05:46:16.646Z,58.05
2022-10-29T05:48:43.244Z,58.19
2022-10-29T05:51:10.093Z,57.97
2022-10-29T05:53:36.862Z,58.05
2022-10-29T05:56:03.693Z,57.77
2022-10-29T05:58:30.287Z,57.49
2022-10-29T06:00:56.841Z,57.72
2022-10-29T06:03:23.444Z,57.44
2022-10-29T06:05:50.821Z,56.89
2022-10-29T06:08:17.980Z,56.96
2022-10-29T06:10:44.560Z,56.59
2022-10-29T06:13:19.233Z,57.01
2022-10-29T06:15:47.393Z,57.46
2022-10-29T06:18:14.804Z,57.19
2022-10-29T06:20:43.536Z,56.73
2022-10-29T06:23:10.926Z,56.67
2022-10-29T06:25:40.626Z,57.06
2022-10-29T06:28:09.919Z,57.01
2022-10-29T06:30:36.786Z,56.94
2022-10-29T06:33:04.762Z,57.28
2022-10-29T06:35:31.860Z,57.44
2022-10-29T06:37:59.470Z,57.51
2022-10-29T06:40:26.808Z,57.71
2022-10-29T06:43:04.699Z,57.63
2022-10-29T06:45:33.238Z,57.96
2022-10-29T06:47:59.964Z,58.04
2022-10-29T06:50:27.312Z,58.29
2022-10-29T06:53:09.717Z,58.35
2022-10-29T06:55:36.388Z,57.98
2022-10-29T06:58:06.084Z,58.45
2022-10-29T07:00:33.980Z,58.78
2022-10-29T07:03:00.956Z,58.63
2022-10-29T07:05:27.720Z,58.36
2022-10-29T07:07:56.727Z,58.42
2022-10-29T07:10:24.545Z,58.30
2022-10-29T07:12:51.164Z,58.27
2022-10-29T07:15:18.212Z,57.68
2022-10-29T07:18:00.746Z,58.17
2022-10-29T07:20:29.553Z,58.24
2022-10-29T07:22:57.538Z,58.83
2022-10-29T07:25:24.364Z,58.86
2022-10-29T07:27:50.977Z,59.38
2022-10-29T07:30:17.694Z,59.55
2022-10-29T07:32:44.228Z,61.10
2022-10-29T07:35:10.782Z,60.74
2022-10-29T07:37:37.365Z,59.74
2022-10-29T07:40:05.010Z,59.56
2022-10-29T07:42:31.629Z,58.91
2022-10-29T07:44:58.254Z,58.64
2022-10-29T07:47:24.792Z,58.80
2022-10-29T07:49:51.352Z,58.63
2022-10-29T07:52:17.965Z,58.89
2022-10-29T07:54:44.581Z,58.85
2022-10-29T07:57:11.335Z,59.39
2022-10-29T07:59:37.937Z,59.76
2022-10-29T08:02:04.556Z,60.17
2022-10-29T08:04:31.092Z,60.22
2022-10-29T08:06:57.626Z,59.99
2022-10-29T08:09:24.192Z,59.78
2022-10-29T08:11:50.729Z,59.85
2022-10-29T08:14:20.227Z,59.77
2022-10-29T08:16:49.284Z,60.04
2022-10-29T08:19:15.812Z,60.46
2022-10-29T08:21:42.401Z,59.67
2022-10-29T08:24:10.092Z,60.48
2022-10-29T08:26:36.622Z,60.03
2022-10-29T08:29:03.766Z,59.20
2022-10-29T08:31:30.354Z,59.33
2022-10-29T08:33:56.917Z,59.31
2022-10-29T08:36:23.441Z,58.99
2022-10-29T08:38:50.144Z,59.77
2022-10-29T08:41:39.914Z,60.45
2022-10-29T08:44:15.559Z,60.16
2022-10-29T08:47:06.985Z,60.49
2022-10-29T08:49:51.213Z,60.57
2022-10-29T08:52:28.105Z,60.12
2022-10-29T08:55:22.748Z,58.72
2022-10-29T08:57:56.693Z,57.34
2022-10-29T09:00:37.521Z,57.39
2022-10-29T09:03:11.598Z,58.46
2022-10-29T09:05:58.328Z,57.23
2022-10-29T09:08:43.477Z,55.74
2022-10-29T09:11:36.125Z,56.37
2022-10-29T09:14:08.766Z,57.44
2022-10-29T09:16:43.410Z,56.72
2022-10-29T09:19:25.469Z,56.20
2022-10-29T09:22:01.101Z,56.07
2022-10-29T09:25:03.902Z,54.12
2022-10-29T09:27:43.642Z,54.84
2022-10-29T09:30:19.470Z,54.83
2022-10-29T09:33:17.434Z,55.40
2022-10-29T09:35:47.307Z,53.48
2022-10-29T09:38:20.555Z,53.15
2022-10-29T09:40:47.146Z,53.03
2022-10-29T09:43:13.642Z,53.21
2022-10-29T09:45:55.299Z,52.45
2022-10-29T09:48:47.160Z,51.38
2022-10-29T09:51:40.005Z,52.94
2022-10-29T09:54:06.725Z,52.88
2022-10-29T09:56:33.341Z,52.28
2022-10-29T09:59:25.032Z,52.74
2022-10-29T10:01:51.721Z,52.89
2022-10-29T10:04:27.465Z,53.89
2022-10-29T10:07:11.061Z,52.14
2022-10-29T10:09:52.820Z,52.68
2022-10-29T10:12:22.230Z,53.38
2022-10-29T10:14:49.071Z,54.22
2022-10-29T10:17:15.706Z,53.65
2022-10-29T10:19:45.378Z,53.65
2022-10-29T10:22:24.279Z,55.35
2022-10-29T10:24:51.049Z,54.83
2022-10-29T10:27:17.551Z,54.77
2022-10-29T10:29:44.809Z,55.36
2022-10-29T10:32:16.240Z,54.44
2022-10-29T10:34:43.036Z,55.92
2022-10-29T10:37:09.526Z,54.76
2022-10-29T10:39:43.648Z,55.12
2022-10-29T10:42:29.303Z,54.88
2022-10-29T10:45:02.001Z,54.76
2022-10-29T10:47:33.786Z,54.04
2022-10-29T10:50:25.050Z,53.05
2022-10-29T10:52:54.853Z,52.77
2022-10-29T10:55:31.791Z,50.58
2022-10-29T10:58:11.397Z,52.57
2022-10-29T11:00:43.979Z,52.07
2022-10-29T11:03:20.400Z,52.53
2022-10-29T11:06:01.475Z,53.07
2022-10-29T11:08:34.859Z,52.16
2022-10-29T11:11:10.429Z,52.27
2022-10-29T11:13:41.749Z,49.45
2022-10-29T11:16:18.102Z,50.19
2022-10-29T11:19:38.949Z,50.11
2022-10-29T11:22:32.049Z,48.80
2022-10-29T11:25:15.928Z,48.78
2022-10-29T11:27:51.464Z,48.38
2022-10-29T11:30:19.427Z,47.90
2022-10-29T11:32:58.475Z,48.24
2022-10-29T11:35:40.734Z,48.82
2022-10-29T11:38:14.998Z,47.92
2022-10-29T11:40:47.579Z,47.97
2022-10-29T11:43:17.685Z,49.55
2022-10-29T11:46:08.931Z,49.05
2022-10-29T11:48:48.610Z,48.07
2022-10-29T11:51:31.158Z,47.99
2022-10-29T11:54:02.501Z,47.63
2022-10-29T11:56:49.229Z,48.09
2022-10-29T11:59:40.659Z,48.15
2022-10-29T12:02:32.967Z,46.66
2022-10-29T12:05:07.404Z,46.56
2022-10-29T12:08:04.329Z,47.21
2022-10-29T12:10:50.424Z,46.80
2022-10-29T12:13:24.194Z,47.18
2022-10-29T12:16:01.776Z,46.63
2022-10-29T12:18:55.006Z,44.75
2022-10-29T12:21:40.435Z,46.09
2022-10-29T12:24:30.634Z,46.80
2022-10-29T12:27:10.545Z,45.90
2022-10-29T12:29:48.204Z,43.97
2022-10-29T12:32:43.229Z,47.48
2022-10-29T12:35:31.043Z,48.74
2022-10-29T12:38:16.272Z,48.25
2022-10-29T12:40:45.998Z,48.17
2022-10-29T12:43:25.910Z,48.08
2022-10-29T12:46:30.062Z,48.23
2022-10-29T12:49:15.839Z,47.43
2022-10-29T12:52:03.885Z,49.43
2022-10-29T12:54:46.874Z,50.34
2022-10-29T12:57:13.466Z,50.92
2022-10-29T12:59:42.197Z,50.35
2022-10-29T13:02:38.279Z,50.36
2022-10-29T13:05:09.570Z,50.22
2022-10-29T13:07:59.619Z,50.92
2022-10-29T13:10:35.647Z,50.68
2022-10-29T13:13:15.428Z,50.89
2022-10-29T13:15:48.845Z,50.87
2022-10-29T13:18:20.547Z,51.41
2022-10-29T13:20:50.905Z,51.48
2022-10-29T13:23:23.490Z,51.29
2022-10-29T13:25:58.162Z,51.04
2022-10-29T13:28:24.678Z,50.81
2022-10-29T13:30:54.072Z,51.52
2022-10-29T13:33:23.645Z,51.57
2022-10-29T13:35:59.210Z,50.70
2022-10-29T13:38:58.140Z,50.33
2022-10-29T13:41:42.087Z,49.92
2022-10-29T13:44:19.043Z,49.77
2022-10-29T13:47:14.993Z,48.97
2022-10-29T13:49:45.243Z,49.14
2022-10-29T13:52:17.404Z,49.55
2022-10-29T13:54:49.278Z,49.55
2022-10-29T13:57:27.932Z,49.56
2022-10-29T14:00:15.200Z,48.50
2022-10-29T14:03:21.997Z,48.72
2022-10-29T14:05:56.868Z,49.00
2022-10-29T14:08:35.223Z,48.38
2022-10-29T14:11:12.108Z,48.45
2022-10-29T14:13:51.136Z,48.72
2022-10-29T14:16:21.576Z,49.38
2022-10-29T14:18:49.492Z,48.98
2022-10-29T14:21:22.703Z,49.03
2022-10-29T14:24:03.294Z,49.09
2022-10-29T14:26:32.767Z,49.67
2022-10-29T14:29:21.741Z,49.17
2022-10-29T14:32:07.699Z,50.03
2022-10-29T14:34:34.680Z,49.72
2022-10-29T14:37:18.980Z,50.69
2022-10-29T14:39:57.937Z,50.94
2022-10-29T14:42:37.203Z,52.70
2022-10-29T14:45:19.965Z,52.44
2022-10-29T14:47:55.442Z,52.84
2022-10-29T14:50:25.345Z,53.71
2022-10-29T14:53:05.468Z,52.79
2022-10-29T14:55:37.544Z,53.77
2022-10-29T14:58:11.387Z,54.11
2022-10-29T15:00:40.478Z,54.27
2022-10-29T15:03:08.034Z,54.88
2022-10-29T15:05:37.064Z,55.64
2022-10-29T15:08:16.350Z,56.28
2022-10-29T15:10:49.265Z,55.68
2022-10-29T15:13:42.038Z,55.03
2022-10-29T15:16:17.597Z,55.19
2022-10-29T15:18:49.078Z,56.25
2022-10-29T15:21:28.635Z,56.72
2022-10-29T15:24:00.832Z,56.40
2022-10-29T15:26:27.466Z,56.29
2022-10-29T15:28:55.979Z,55.48
2022-10-29T15:31:44.917Z,55.83
2022-10-29T15:34:23.908Z,55.78
2022-10-29T15:36:58.445Z,55.44
2022-10-29T15:39:29.319Z,54.87
2022-10-29T15:41:59.633Z,55.12
2022-10-29T15:44:36.508Z,54.85
2022-10-29T15:47:20.107Z,54.89
2022-10-29T15:49:46.721Z,55.03
2022-10-29T15:52:17.697Z,55.21
2022-10-29T15:54:44.474Z,55.13
2022-10-29T15:57:14.321Z,55.41
2022-10-29T15:59:41.278Z,55.59
2022-10-29T16:02:17.506Z,56.05
2022-10-29T16:04:44.293Z,56.32
2022-10-29T16:07:13.549Z,56.42
2022-10-29T16:09:50.430Z,55.30
2022-10-29T16:12:17.022Z,55.00
2022-10-29T16:14:43.814Z,54.59
2022-10-29T16:17:18.972Z,54.69
2022-10-29T16:19:45.870Z,55.09
2022-10-29T16:22:29.576Z,55.01
2022-10-29T16:24:56.549Z,55.92
2022-10-29T16:27:25.153Z,55.22
2022-10-29T16:29:52.179Z,55.36
2022-10-29T16:32:24.460Z,55.29
2022-10-29T16:34:52.242Z,55.81
2022-10-29T16:37:20.834Z,55.07
2022-10-29T16:39:47.453Z,56.07
2022-10-29T16:42:33.239Z,55.86
2022-10-29T16:45:00.272Z,56.31
2022-10-29T16:47:27.564Z,55.23
2022-10-29T16:49:54.835Z,54.38
2022-10-29T16:52:24.101Z,55.70
2022-10-29T16:54:53.160Z,55.23
2022-10-29T16:57:19.806Z,54.10
2022-10-29T16:59:46.746Z,54.79
2022-10-29T17:02:13.863Z,52.70
2022-10-29T17:04:40.500Z,52.80
2022-10-29T17:07:07.262Z,52.54
2022-10-29T17:09:35.343Z,54.19
2022-10-29T17:12:02.492Z,53.25
2022-10-29T17:14:29.102Z,52.97
2022-10-29T17:16:57.073Z,52.82
2022-10-29T17:19:24.132Z,53.14
2022-10-29T17:21:51.057Z,53.12
2022-10-29T17:24:17.663Z,52.66
2022-10-29T17:26:44.278Z,52.37
2022-10-29T17:29:11.005Z,52.32
2022-10-29T17:31:37.860Z,51.58
2022-10-29T17:34:04.693Z,52.01
2022-10-29T17:36:31.278Z,52.43
2022-10-29T17:38:57.881Z,50.87
2022-10-29T17:41:24.432Z,51.03
2022-10-29T17:43:51.074Z,50.82
2022-10-29T17:46:18.042Z,50.26
2022-10-29T17:48:44.669Z,51.68
2022-10-29T17:51:11.200Z,51.54
2022-10-29T17:53:39.034Z,51.31
2022-10-29T17:56:05.877Z,51.29
2022-10-29T17:58:32.750Z,51.44
2022-10-29T18:01:04.742Z,50.96
2022-10-29T18:03:31.415Z,51.22
2022-10-29T18:06:06.494Z,51.43
2022-10-29T18:08:36.403Z,50.82
2022-10-29T18:11:05.412Z,50.90
2022-10-29T18:13:39.619Z,50.91
2022-10-29T18:16:06.713Z,52.06
2022-10-29T18:18:48.236Z,50.98
2022-10-29T18:21:25.552Z,51.12
2022-10-29T18:23:52.239Z,51.19
2022-10-29T18:26:30.823Z,51.00
2022-10-29T18:28:59.586Z,51.13
2022-10-29T18:31:30.286Z,50.89
2022-10-29T18:33:58.888Z,50.97
2022-10-29T18:36:25.831Z,51.31
2022-10-29T18:38:53.969Z,50.93
2022-10-29T18:41:20.677Z,50.91
2022-10-29T18:43:47.692Z,51.08
2022-10-29T18:46:14.883Z,50.95
2022-10-29T18:48:43.632Z,50.52
2022-10-29T18:51:13.595Z,51.37
2022-10-29T18:53:40.597Z,50.52
2022-10-29T18:56:12.505Z,50.78
2022-10-29T18:58:40.169Z,50.61
2022-10-29T19:01:09.745Z,51.57
2022-10-29T19:03:37.673Z,50.98
2022-10-29T19:06:12.805Z,51.76
2022-10-29T19:08:41.753Z,51.30
2022-10-29T19:11:11.994Z,51.19
2022-10-29T19:13:38.794Z,51.33
2022-10-29T19:16:10.541Z,50.69
2022-10-29T19:18:38.619Z,51.27
2022-10-29T19:21:07.502Z,50.66
2022-10-29T19:23:34.449Z,51.01
2022-10-29T19:26:11.207Z,51.08
2022-10-29T19:28:39.316Z,50.66
2022-10-29T19:31:11.318Z,51.18
2022-10-29T19:33:38.061Z,50.65
2022-10-29T19:36:06.480Z,50.21
2022-10-29T19:38:33.406Z,51.25
2022-10-29T19:41:00.202Z,51.17
2022-10-29T19:43:31.229Z,50.05
2022-10-29T19:45:58.336Z,50.13
2022-10-29T19:48:25.309Z,50.63
2022-10-29T19:50:56.265Z,50.64
2022-10-29T19:53:23.545Z,50.95
2022-10-29T19:55:50.488Z,50.61
2022-10-29T19:58:35.587Z,51.30
2022-10-29T20:01:07.880Z,50.97
2022-10-29T20:03:35.723Z,51.01
2022-10-29T20:06:02.341Z,50.12
2022-10-29T20:08:29.136Z,51.42
2022-10-29T20:11:00.075Z,50.57
2022-10-29T20:13:27.403Z,50.90
2022-10-29T20:15:54.731Z,51.28
2022-10-29T20:18:21.819Z,51.52
2022-10-29T20:20:58.125Z,51.92
2022-10-29T20:23:25.734Z,53.04
2022-10-29T20:25:52.678Z,53.45
2022-10-29T20:28:19.290Z,53.33
2022-10-29T20:30:45.950Z,53.52
2022-10-29T20:33:12.808Z,53.46
2022-10-29T20:35:39.366Z,53.15
2022-10-29T20:38:05.935Z,52.88
2022-10-29T20:40:32.577Z,52.37
2022-10-29T20:42:59.163Z,52.81
2022-10-29T20:45:25.833Z,52.30
2022-10-29T20:47:52.349Z,52.34
2022-10-29T20:50:18.955Z,52.07
2022-10-29T20:52:48.604Z,51.83
2022-10-29T20:55:15.944Z,51.18
2022-10-29T20:57:42.567Z,51.74
2022-10-29T21:00:09.899Z,51.71
2022-10-29T21:02:36.560Z,51.67
2022-10-29T21:05:03.351Z,52.07
2022-10-29T21:07:29.899Z,52.53
2022-10-29T21:09:56.467Z,52.26
2022-10-29T21:12:23.115Z,52.00
2022-10-29T21:14:49.685Z,51.89
2022-10-29T21:17:16.228Z,52.35
2022-10-29T21:19:42.768Z,52.41
2022-10-29T21:22:09.382Z,52.04
2022-10-29T21:24:36.448Z,51.89
2022-10-29T21:27:04.140Z,51.95
2022-10-29T21:29:30.814Z,52.28
2022-10-29T21:31:57.352Z,52.11
2022-10-29T21:34:23.975Z,52.50
2022-10-29T21:36:50.582Z,52.55
2022-10-29T21:39:17.110Z,52.55
2022-10-29T21:41:43.777Z,52.73
2022-10-29T21:44:10.369Z,52.71
2022-10-29T21:46:37.000Z,52.68
2022-10-29T21:49:03.555Z,53.09
2022-10-29T21:51:30.139Z,52.24
2022-10-29T21:53:56.830Z,52.58
2022-10-29T21:56:24.119Z,52.87
2022-10-29T21:58:54.128Z,52.62
2022-10-29T22:01:20.797Z,52.71
2022-10-29T22:03:47.726Z,52.86
2022-10-29T22:06:17.114Z,52.52
2022-10-29T22:08:44.328Z,52.58
2022-10-29T22:11:11.836Z,52.44
2022-10-29T22:13:38.776Z,52.73
2022-10-29T22:16:07.129Z,52.68
2022-10-29T22:18:34.310Z,52.80
2022-10-29T22:21:12.264Z,53.44
2022-10-29T22:23:50.469Z,53.78
2022-10-29T22:26:19.756Z,54.02
2022-10-29T22:28:50.101Z,53.65
2022-10-29T22:31:18.810Z,53.96
2022-10-29T22:33:46.021Z,54.15
2022-10-29T22:36:14.962Z,53.68
2022-10-29T22:38:41.708Z,53.03
2022-10-29T22:41:18.346Z,52.95
2022-10-29T22:43:45.245Z,53.02
2022-10-29T22:46:16.273Z,53.30
2022-10-29T22:48:45.615Z,53.59
2022-10-29T22:51:21.758Z,53.55
2022-10-29T22:53:49.181Z,53.58
2022-10-29T22:56:18.145Z,54.78
2022-10-29T22:58:45.493Z,55.62
2022-10-29T23:01:15.230Z,54.83
2022-10-29T23:03:42.775Z,54.20
2022-10-29T23:06:11.904Z,54.29
2022-10-29T23:08:38.448Z,54.23
2022-10-29T23:11:20.438Z,54.37
2022-10-29T23:13:58.257Z,54.55
2022-10-29T23:16:27.446Z,54.69
2022-10-29T23:18:56.247Z,54.61
2022-10-29T23:21:23.384Z,54.46
2022-10-29T23:23:50.143Z,54.24
2022-10-29T23:26:17.904Z,54.02
2022-10-29T23:28:45.467Z,53.62
2022-10-29T23:31:24.235Z,53.82
2022-10-29T23:33:53.145Z,53.87
2022-10-29T23:36:21.670Z,54.31
2022-10-29T23:38:48.727Z,54.46
2022-10-29T23:41:15.338Z,54.17
2022-10-29T23:43:42.015Z,53.69
2022-10-29T23:46:08.559Z,53.99
2022-10-29T23:48:35.102Z,54.17
2022-10-29T23:51:01.733Z,53.87
2022-10-29T23:53:28.704Z,53.71
2022-10-29T23:55:55.293Z,52.95
2022-10-29T23:58:21.858Z,53.28
